Time;durP1;ratioP1;P1;durP2;ratioP2;P2;SDS_P1;SDS_P2;PMS_P1;PMS_P2;Temp;Humidity;BMP_temperature;BMP_pressure;BME280_temperature;BME280_humidity;BME280_pressure;Samples;Min_cycle;Max_cycle;Signal;HPM_P1;HPM_P2
2023/02/08 00:01:13;;;;;;;0.10;0.10;;;-0.60;99.90;;;;;;5025477;28;20589;-82
2023/02/08 00:03:39;;;;;;;0.10;0.10;;;-0.60;99.90;;;;;;5024063;28;20183;-82
2023/02/08 00:06:07;;;;;;;0.10;0.10;;;-0.50;99.90;;;;;;5024729;28;20202;-81
2023/02/08 00:08:36;;;;;;;0.10;0.10;;;-0.50;99.90;;;;;;5023949;28;20240;-82
2023/02/08 00:11:02;;;;;;;0.10;0.10;;;-0.40;99.90;;;;;;5025561;28;20289;-82
2023/02/08 00:13:27;;;;;;;0.00;0.00;;;-0.40;99.90;;;;;;5022334;28;20190;-82
2023/02/08 00:15:54;;;;;;;0.00;0.00;;;-0.40;99.90;;;;;;5024140;28;20191;-83
2023/02/08 00:18:20;;;;;;;0.10;0.10;;;-0.40;99.90;;;;;;5024329;28;20267;-82
2023/02/08 00:20:46;;;;;;;0.10;0.10;;;-0.50;99.90;;;;;;5023334;28;20575;-81
2023/02/08 00:23:13;;;;;;;0.10;0.10;;;-0.50;99.90;;;;;;5023983;28;20202;-82
2023/02/08 00:25:39;;;;;;;0.10;0.10;;;-0.50;99.90;;;;;;5022278;28;20186;-83
2023/02/08 00:28:05;;;;;;;0.10;0.10;;;-0.60;99.90;;;;;;5025265;28;20687;-82
2023/02/08 00:30:31;;;;;;;0.00;0.00;;;-0.60;99.90;;;;;;5024950;28;20198;-81
2023/02/08 00:32:56;;;;;;;0.00;0.00;;;-0.50;99.90;;;;;;5025197;28;20264;-82
2023/02/08 00:35:22;;;;;;;0.00;0.00;;;-0.50;99.90;;;;;;5024470;28;20628;-83
2023/02/08 00:37:48;;;;;;;0.10;0.10;;;-0.40;99.90;;;;;;5023431;28;20275;-82
2023/02/08 00:40:13;;;;;;;0.10;0.10;;;-0.40;99.90;;;;;;5020750;28;20197;-83
2023/02/08 00:42:39;;;;;;;0.00;0.00;;;-0.40;99.90;;;;;;5024202;28;20229;-82
2023/02/08 00:45:04;;;;;;;0.10;0.10;;;-0.40;99.90;;;;;;5020597;28;20273;-83
2023/02/08 00:47:30;;;;;;;0.10;0.10;;;-0.50;99.90;;;;;;5024212;28;20266;-81
2023/02/08 00:49:55;;;;;;;0.10;0.10;;;-0.80;99.90;;;;;;5023803;28;20182;-82
2023/02/08 00:52:21;;;;;;;0.10;0.10;;;-0.70;99.90;;;;;;5024435;28;20203;-82
2023/02/08 00:54:47;;;;;;;0.10;0.10;;;-0.70;99.90;;;;;;5024350;28;20313;-82
2023/02/08 00:57:13;;;;;;;0.10;0.10;;;-0.60;99.90;;;;;;5029164;28;20190;-83
2023/02/08 00:59:38;;;;;;;0.10;0.10;;;-0.60;99.90;;;;;;5029735;28;20229;-82
2023/02/08 01:02:04;;;;;;;0.10;0.10;;;-0.70;99.90;;;;;;5027002;28;20217;-82
2023/02/08 01:04:30;;;;;;;0.00;0.00;;;-0.70;99.90;;;;;;5026926;28;20190;-82
2023/02/08 01:06:55;;;;;;;0.10;0.10;;;-0.80;99.90;;;;;;5027081;28;20640;-82
2023/02/08 01:09:21;;;;;;;0.10;0.10;;;-0.70;99.90;;;;;;5029125;28;20179;-81
2023/02/08 01:11:47;;;;;;;0.00;0.00;;;-0.70;99.90;;;;;;5027952;28;20215;-82
2023/02/08 01:14:12;;;;;;;0.10;0.10;;;-0.70;99.90;;;;;;5024636;28;20719;-82
2023/02/08 01:16:38;;;;;;;0.10;0.10;;;-0.70;99.90;;;;;;5027718;28;20183;-82
2023/02/08 01:19:04;;;;;;;0.10;0.10;;;-0.80;99.90;;;;;;5028517;28;20594;-81
2023/02/08 01:21:33;;;;;;;0.10;0.10;;;-1.00;99.90;;;;;;5028824;28;20220;-81
2023/02/08 01:23:59;;;;;;;0.10;0.10;;;-0.90;99.90;;;;;;5027165;28;20182;-81
2023/02/08 01:26:25;;;;;;;0.00;0.00;;;-0.90;99.90;;;;;;5027585;28;20610;-83
2023/02/08 01:28:52;;;;;;;0.10;0.10;;;-0.90;99.90;;;;;;5027346;28;20178;-83
2023/02/08 01:31:27;;;;;;;0.10;0.10;;;-0.80;99.90;;;;;;5025351;28;20209;-82
2023/02/08 01:33:54;;;;;;;0.10;0.10;;;-0.90;99.90;;;;;;5026882;28;20635;-81
2023/02/08 01:36:19;;;;;;;0.10;0.10;;;-0.80;99.90;;;;;;5027166;28;20329;-82
2023/02/08 01:38:45;;;;;;;0.10;0.10;;;-0.90;99.90;;;;;;5027009;28;20311;-81
2023/02/08 01:41:36;;;;;;;0.10;0.10;;;-0.90;99.90;;;;;;5027664;28;20204;-82
2023/02/08 01:44:10;;;;;;;0.10;0.10;;;-0.80;99.90;;;;;;5023910;28;20194;-82
2023/02/08 01:46:46;;;;;;;0.10;0.10;;;-0.80;99.90;;;;;;5028406;28;20186;-82
2023/02/08 01:49:20;;;;;;;0.03;0.03;;;-0.80;99.90;;;;;;5026227;28;20536;-82
2023/02/08 01:51:51;;;;;;;0.10;0.10;;;-0.90;99.90;;;;;;5026022;28;20215;-82
2023/02/08 01:54:19;;;;;;;0.10;0.10;;;-1.00;99.90;;;;;;5025466;28;20237;-82
2023/02/08 01:56:46;;;;;;;0.10;0.10;;;-1.10;99.90;;;;;;5023204;28;20191;-82
2023/02/08 01:59:25;;;;;;;0.10;0.10;;;-1.10;99.90;;;;;;5024643;28;20237;-81
2023/02/08 02:01:52;;;;;;;0.10;0.10;;;-1.20;99.90;;;;;;5026301;28;20684;-82
2023/02/08 02:04:18;;;;;;;0.00;0.00;;;-1.30;99.90;;;;;;5026351;28;20217;-82
2023/02/08 02:06:51;;;;;;;0.10;0.10;;;-1.30;99.90;;;;;;5020885;28;20686;-82
2023/02/08 02:09:23;;;;;;;0.10;0.10;;;-1.40;99.90;;;;;;5026328;28;20177;-82
2023/02/08 02:11:52;;;;;;;0.10;0.10;;;-1.40;99.90;;;;;;5026203;28;20261;-82
2023/02/08 02:14:18;;;;;;;0.03;0.03;;;-1.40;99.90;;;;;;5022960;28;20191;-82
2023/02/08 02:16:44;;;;;;;0.10;0.10;;;-1.40;99.90;;;;;;5026364;28;20187;-82
2023/02/08 02:19:31;;;;;;;0.10;0.10;;;-1.50;99.90;;;;;;5027250;28;20182;-82
2023/02/08 02:22:26;;;;;;;0.10;0.10;;;-1.60;99.90;;;;;;5026571;28;20203;-81
2023/02/08 02:25:16;;;;;;;0.10;0.10;;;-1.60;99.90;;;;;;5025855;28;20190;-82
2023/02/08 02:27:56;;;;;;;0.10;0.10;;;-1.60;99.90;;;;;;5021780;28;20183;-82
2023/02/08 02:30:49;;;;;;;0.10;0.10;;;-1.60;99.90;;;;;;5027577;28;20181;-79
2023/02/08 02:33:27;;;;;;;0.10;0.10;;;-1.60;99.90;;;;;;5025454;28;20323;-80
2023/02/08 02:36:12;;;;;;;0.10;0.10;;;-1.60;99.90;;;;;;5022946;28;20546;-78
2023/02/08 02:39:04;;;;;;;0.00;0.00;;;-1.60;99.90;;;;;;5025653;28;20191;-79
2023/02/08 02:44:44;;;;;;;0.10;0.10;;;-1.50;99.90;;;;;;5007429;28;20198;-77
2023/02/08 02:47:30;;;;;;;0.10;0.10;;;-1.50;99.90;;;;;;5026554;28;20186;-79
2023/02/08 02:50:24;;;;;;;0.10;0.10;;;-1.50;99.90;;;;;;5025700;28;20308;-79
2023/02/08 02:53:03;;;;;;;0.10;0.10;;;-1.50;99.90;;;;;;5012161;28;20571;-77
2023/02/08 02:55:35;;;;;;;0.10;0.10;;;-1.40;99.90;;;;;;5023636;28;20236;-79
2023/02/08 02:58:02;;;;;;;0.03;0.03;;;-1.30;99.90;;;;;;5025074;28;20179;-79
2023/02/08 03:00:29;;;;;;;0.10;0.10;;;-1.20;99.90;;;;;;5024345;28;20226;-80
2023/02/08 03:02:57;;;;;;;0.10;0.10;;;-1.20;99.90;;;;;;5024920;28;20199;-80
2023/02/08 03:05:24;;;;;;;0.10;0.10;;;-1.20;99.90;;;;;;5024687;28;20275;-80
2023/02/08 03:07:55;;;;;;;0.10;0.10;;;-1.10;99.90;;;;;;5024665;28;20691;-80
2023/02/08 03:10:39;;;;;;;0.10;0.10;;;-1.10;99.90;;;;;;5024927;28;20192;-79
2023/02/08 03:13:07;;;;;;;2.70;2.53;;;-1.20;99.90;;;;;;5024066;28;20183;-79
2023/02/08 03:15:36;;;;;;;0.10;0.10;;;-1.10;99.90;;;;;;5024338;28;20210;-79
2023/02/08 03:18:34;;;;;;;0.10;0.10;;;-1.20;99.90;;;;;;5023733;28;20274;-80
2023/02/08 03:21:17;;;;;;;0.10;0.10;;;-1.10;99.90;;;;;;5024581;28;20272;-79
2023/02/08 03:24:01;;;;;;;0.10;0.10;;;-1.10;99.90;;;;;;5026014;28;20180;-78
2023/02/08 03:26:41;;;;;;;0.10;0.10;;;-1.10;99.90;;;;;;5024279;28;20533;-80
2023/02/08 03:29:17;;;;;;;0.07;0.07;;;-1.20;99.90;;;;;;5022007;28;20189;-79
2023/02/08 03:31:59;;;;;;;0.10;0.10;;;-1.20;99.90;;;;;;5024564;28;20206;-78
2023/02/08 03:34:45;;;;;;;0.10;0.10;;;-1.20;99.90;;;;;;5024461;28;20235;-79
2023/02/08 03:37:48;;;;;;;0.10;0.10;;;-1.10;99.90;;;;;;5023968;28;20228;-80
2023/02/08 03:40:24;;;;;;;0.10;0.10;;;-1.20;99.90;;;;;;5024144;28;20239;-82
2023/02/08 03:42:52;;;;;;;0.10;0.10;;;-1.20;99.90;;;;;;5024162;28;20210;-82
2023/02/08 03:45:28;;;;;;;0.00;0.00;;;-1.10;99.90;;;;;;5024219;28;20188;-81
2023/02/08 03:47:58;;;;;;;0.10;0.10;;;-1.10;99.90;;;;;;5021483;28;20265;-82
2023/02/08 03:50:25;;;;;;;0.10;0.10;;;-1.20;99.90;;;;;;5024262;28;20744;-82
2023/02/08 03:52:52;;;;;;;0.10;0.10;;;-1.10;99.90;;;;;;5025696;28;20196;-82
2023/02/08 03:55:23;;;;;;;0.10;0.10;;;-1.10;99.90;;;;;;5023881;28;20183;-82
2023/02/08 03:58:15;;;;;;;0.10;0.10;;;-1.00;99.90;;;;;;5024292;28;20240;-81
2023/02/08 04:00:47;;;;;;;0.10;0.10;;;-1.00;99.90;;;;;;5024941;28;20247;-83
2023/02/08 04:03:19;;;;;;;0.10;0.10;;;-1.00;99.90;;;;;;5024253;28;20876;-82
2023/02/08 04:05:44;;;;;;;0.10;0.10;;;-1.20;99.90;;;;;;5020981;28;20175;-82
2023/02/08 04:08:10;;;;;;;0.10;0.10;;;-1.20;99.90;;;;;;5024397;28;20550;-83
2023/02/08 04:10:35;;;;;;;0.10;0.10;;;-1.30;99.90;;;;;;5025931;28;20205;-81
2023/02/08 04:13:01;;;;;;;0.10;0.10;;;-1.30;99.90;;;;;;5020167;28;20182;-82
2023/02/08 04:15:27;;;;;;;0.10;0.10;;;-1.40;99.90;;;;;;5025637;28;20288;-81
2023/02/08 04:17:53;;;;;;;0.10;0.10;;;-1.50;99.90;;;;;;5023182;28;20178;-82
2023/02/08 04:20:19;;;;;;;0.10;0.10;;;-1.60;99.90;;;;;;5024032;28;20559;-82
2023/02/08 04:22:45;;;;;;;0.10;0.10;;;-1.60;99.90;;;;;;5019746;28;20202;-81
2023/02/08 04:25:10;;;;;;;0.10;0.10;;;-1.60;99.90;;;;;;5023951;28;20213;-82
2023/02/08 04:27:36;;;;;;;0.03;0.03;;;-1.60;99.90;;;;;;5025804;28;20182;-82
2023/02/08 04:30:03;;;;;;;0.10;0.10;;;-1.60;99.90;;;;;;5022899;28;20652;-83
2023/02/08 04:32:28;;;;;;;0.10;0.10;;;-1.50;99.90;;;;;;5024112;28;20223;-81
2023/02/08 04:34:54;;;;;;;0.03;0.03;;;-1.40;99.90;;;;;;5029734;28;20373;-81
2023/02/08 04:37:19;;;;;;;0.10;0.10;;;-1.40;99.90;;;;;;5027202;28;20187;-82
2023/02/08 04:39:45;;;;;;;0.00;0.00;;;-1.30;99.90;;;;;;5029152;28;20191;-82
2023/02/08 04:42:10;;;;;;;0.10;0.10;;;-1.30;99.90;;;;;;5026657;28;20265;-82
2023/02/08 04:44:36;;;;;;;0.10;0.10;;;-1.20;99.90;;;;;;5028979;28;20622;-82
2023/02/08 04:47:01;;;;;;;0.10;0.10;;;-1.20;99.90;;;;;;5027052;28;20189;-82
2023/02/08 04:49:27;;;;;;;0.00;0.00;;;-1.20;99.90;;;;;;5029523;28;20261;-83
2023/02/08 04:51:52;;;;;;;0.10;0.10;;;-1.20;99.90;;;;;;5027562;28;20208;-81
2023/02/08 04:54:18;;;;;;;0.10;0.10;;;-1.20;99.90;;;;;;5027658;28;20187;-83
2023/02/08 04:56:43;;;;;;;0.10;0.10;;;-1.20;99.90;;;;;;5029559;28;20183;-82
2023/02/08 04:59:09;;;;;;;0.10;0.10;;;-1.20;99.90;;;;;;5026580;28;20190;-82
2023/02/08 05:01:34;;;;;;;0.07;0.07;;;-1.30;99.90;;;;;;5030827;28;20228;-81
2023/02/08 05:04:00;;;;;;;0.10;0.10;;;-1.40;99.90;;;;;;5027255;28;20170;-82
2023/02/08 05:06:25;;;;;;;0.10;0.10;;;-1.40;99.90;;;;;;5028608;28;20530;-82
2023/02/08 05:08:51;;;;;;;0.10;0.10;;;-1.40;99.90;;;;;;5029165;28;20186;-82
2023/02/08 05:11:21;;;;;;;0.10;0.10;;;-1.40;99.90;;;;;;5028925;28;21270;-82
2023/02/08 05:13:47;;;;;;;0.10;0.10;;;-1.40;99.90;;;;;;5026906;28;20183;-82
2023/02/08 05:16:13;;;;;;;0.33;0.33;;;-1.50;99.90;;;;;;5026690;28;20224;-81
2023/02/08 05:18:38;;;;;;;0.10;0.10;;;-1.40;99.90;;;;;;5026998;28;20666;-82
2023/02/08 05:21:04;;;;;;;0.10;0.10;;;-1.40;99.90;;;;;;5028686;28;20238;-82
2023/02/08 05:23:31;;;;;;;0.10;0.10;;;-1.40;99.90;;;;;;5028676;28;20245;-81
2023/02/08 05:25:57;;;;;;;0.10;0.10;;;-1.40;99.90;;;;;;5027373;28;20182;-82
2023/02/08 05:28:22;;;;;;;0.10;0.10;;;-1.40;99.90;;;;;;5027408;28;20588;-81
2023/02/08 05:30:48;;;;;;;0.10;0.10;;;-1.40;99.90;;;;;;5027008;28;20324;-81
2023/02/08 05:33:14;;;;;;;0.10;0.10;;;-1.40;99.90;;;;;;5027518;28;20989;-81
2023/02/08 05:35:40;;;;;;;0.10;0.10;;;-1.40;99.90;;;;;;5023928;28;20747;-82
2023/02/08 05:38:06;;;;;;;0.10;0.10;;;-1.50;99.90;;;;;;5027181;28;20186;-82
2023/02/08 05:40:32;;;;;;;0.10;0.10;;;-1.40;99.90;;;;;;5028306;28;20975;-81
2023/02/08 05:42:57;;;;;;;0.10;0.10;;;-1.40;99.90;;;;;;5025656;28;20233;-81
2023/02/08 05:45:23;;;;;;;0.10;0.10;;;-1.40;99.90;;;;;;5027575;28;20561;-82
2023/02/08 05:47:49;;;;;;;0.10;0.10;;;-1.40;99.90;;;;;;5024167;28;20191;-82
2023/02/08 05:50:14;;;;;;;0.10;0.10;;;-1.40;99.90;;;;;;5028039;28;20186;-83
2023/02/08 05:52:40;;;;;;;0.10;0.10;;;-1.30;99.90;;;;;;5024248;28;20281;-81
2023/02/08 05:55:06;;;;;;;0.10;0.10;;;-1.30;99.90;;;;;;5026767;28;20248;-82
2023/02/08 05:57:32;;;;;;;0.10;0.10;;;-1.20;99.90;;;;;;5026699;28;20182;-81
2023/02/08 05:59:58;;;;;;;0.10;0.10;;;-1.20;99.90;;;;;;5026471;28;20284;-82
2023/02/08 06:02:23;;;;;;;0.10;0.10;;;-1.40;99.90;;;;;;5026720;28;20209;-82
2023/02/08 06:04:49;;;;;;;0.10;0.10;;;-1.40;99.90;;;;;;5025904;28;20178;-81
2023/02/08 06:07:14;;;;;;;0.03;0.03;;;-1.40;99.90;;;;;;5027737;28;20184;-82
2023/02/08 06:09:40;;;;;;;0.10;0.10;;;-1.40;99.90;;;;;;5028497;28;20194;-81
2023/02/08 06:12:06;;;;;;;0.10;0.10;;;-1.30;99.90;;;;;;5026236;28;20234;-82
2023/02/08 06:14:31;;;;;;;0.10;0.10;;;-1.30;99.90;;;;;;5026233;28;20186;-82
2023/02/08 06:16:57;;;;;;;0.10;0.10;;;-1.20;99.90;;;;;;5027490;28;20185;-82
2023/02/08 06:19:23;;;;;;;0.10;0.10;;;-1.10;99.90;;;;;;5026251;28;20186;-83
2023/02/08 06:21:48;;;;;;;0.10;0.10;;;-1.10;99.90;;;;;;5028653;28;20251;-81
2023/02/08 06:24:15;;;;;;;0.10;0.10;;;-1.00;99.90;;;;;;5025465;28;20181;-83
2023/02/08 06:26:41;;;;;;;0.10;0.10;;;-1.10;99.90;;;;;;5027441;28;20578;-80
2023/02/08 06:29:07;;;;;;;0.10;0.10;;;-1.00;99.90;;;;;;5026614;28;20180;-81
2023/02/08 06:31:33;;;;;;;0.10;0.10;;;-1.00;99.90;;;;;;5027254;28;20287;-82
2023/02/08 06:33:58;;;;;;;0.10;0.10;;;-0.90;99.90;;;;;;5025909;28;20194;-81
2023/02/08 06:36:24;;;;;;;0.10;0.10;;;-0.90;99.90;;;;;;5026321;28;20496;-81
2023/02/08 06:38:49;;;;;;;0.10;0.10;;;-1.00;99.90;;;;;;5028533;28;20176;-82
2023/02/08 06:41:16;;;;;;;0.10;0.10;;;-0.90;99.90;;;;;;5026237;28;20200;-82
2023/02/08 06:43:41;;;;;;;0.10;0.10;;;-1.00;99.90;;;;;;5026493;28;20213;-82
2023/02/08 06:46:07;;;;;;;0.00;0.00;;;-0.90;99.90;;;;;;5027026;28;20183;-82
2023/02/08 06:48:36;;;;;;;0.10;0.10;;;-0.90;99.90;;;;;;5026121;28;20181;-82
2023/02/08 06:51:02;;;;;;;0.10;0.10;;;-1.00;99.90;;;;;;5024540;28;20206;-81
2023/02/08 06:53:28;;;;;;;0.10;0.10;;;-1.00;99.90;;;;;;5026112;28;20949;-81
2023/02/08 06:55:53;;;;;;;0.10;0.10;;;-0.90;99.90;;;;;;5026045;28;20183;-82
2023/02/08 06:58:19;;;;;;;0.10;0.10;;;-0.90;99.90;;;;;;5027772;28;20188;-82
2023/02/08 07:00:45;;;;;;;0.10;0.10;;;-0.80;99.90;;;;;;5025506;28;20237;-82
2023/02/08 07:03:12;;;;;;;0.10;0.10;;;-0.80;99.90;;;;;;5027369;28;20195;-81
2023/02/08 07:05:37;;;;;;;0.10;0.10;;;-0.70;99.90;;;;;;5025734;28;20549;-82
2023/02/08 07:08:04;;;;;;;0.10;0.10;;;-0.70;99.90;;;;;;5025817;28;20175;-82
2023/02/08 07:10:30;;;;;;;0.00;0.00;;;-0.60;99.90;;;;;;5025287;28;20206;-81
2023/02/08 07:12:55;;;;;;;0.10;0.10;;;-0.60;99.90;;;;;;5024372;28;20179;-82
2023/02/08 07:15:21;;;;;;;0.00;0.00;;;-0.50;99.90;;;;;;5026037;28;20180;-81
2023/02/08 07:17:46;;;;;;;0.10;0.10;;;-0.50;99.90;;;;;;5025360;28;20198;-82
2023/02/08 07:20:12;;;;;;;0.07;0.07;;;-0.40;99.90;;;;;;5025358;28;20253;-82
2023/02/08 07:22:39;;;;;;;0.10;0.10;;;-0.40;99.90;;;;;;5025203;28;20227;-82
2023/02/08 07:25:06;;;;;;;0.10;0.10;;;-0.30;99.90;;;;;;5026592;28;20308;-83
2023/02/08 07:27:31;;;;;;;0.10;0.10;;;-0.10;99.90;;;;;;5025602;28;20186;-82
2023/02/08 07:29:57;;;;;;;0.10;0.10;;;-0.10;99.90;;;;;;5023710;28;20183;-82
2023/02/08 07:32:23;;;;;;;0.10;0.10;;;-0.10;99.90;;;;;;5022026;28;20206;-82
2023/02/08 07:34:48;;;;;;;0.10;0.10;;;-0.10;99.90;;;;;;5026616;28;20189;-82
2023/02/08 07:37:14;;;;;;;0.10;0.10;;;-0.10;99.90;;;;;;5025402;28;20277;-81
2023/02/08 07:39:39;;;;;;;0.10;0.10;;;-0.10;99.90;;;;;;5025592;28;20195;-82
2023/02/08 07:42:06;;;;;;;0.10;0.10;;;-0.10;99.90;;;;;;5025114;28;20216;-81
2023/02/08 07:44:32;;;;;;;0.10;0.10;;;-0.10;99.90;;;;;;5025084;28;20187;-81
2023/02/08 07:46:57;;;;;;;0.10;0.10;;;-0.10;99.90;;;;;;5025788;28;20191;-81
2023/02/08 07:49:23;;;;;;;0.10;0.10;;;0.00;99.90;;;;;;5025216;28;20261;-82
2023/02/08 07:51:48;;;;;;;0.10;0.10;;;0.20;99.90;;;;;;5024212;28;20229;-82
2023/02/08 07:54:14;;;;;;;0.63;0.63;;;0.30;99.90;;;;;;5024206;28;20186;-82
2023/02/08 07:56:40;;;;;;;0.10;0.10;;;0.40;99.90;;;;;;5022662;28;20182;-82
2023/02/08 07:59:05;;;;;;;0.10;0.10;;;0.60;99.90;;;;;;5026287;28;20687;-81
2023/02/08 08:01:31;;;;;;;0.20;0.20;;;0.60;99.90;;;;;;5024220;28;20225;-82
2023/02/08 08:03:57;;;;;;;0.10;0.10;;;0.70;99.90;;;;;;5025717;28;20225;-81
2023/02/08 08:06:22;;;;;;;0.10;0.10;;;0.90;99.90;;;;;;5024195;28;20206;-81
2023/02/08 08:08:48;;;;;;;0.10;0.10;;;0.90;99.90;;;;;;5022870;28;20263;-81
2023/02/08 08:11:15;;;;;;;0.10;0.10;;;0.90;99.90;;;;;;5024427;28;20203;-82
2023/02/08 08:13:41;;;;;;;0.10;0.10;;;1.10;99.90;;;;;;5024579;28;20240;-81
2023/02/08 08:16:07;;;;;;;0.10;0.10;;;1.20;99.90;;;;;;5024096;28;20178;-81
2023/02/08 08:18:32;;;;;;;0.10;0.10;;;1.20;99.90;;;;;;5024876;28;20183;-81
2023/02/08 08:20:58;;;;;;;4.53;1.30;;;1.20;99.90;;;;;;5026079;28;20487;-82
2023/02/08 08:23:23;;;;;;;0.10;0.10;;;1.40;99.90;;;;;;5024154;28;20221;-82
2023/02/08 08:25:49;;;;;;;0.10;0.10;;;1.40;99.90;;;;;;5022715;28;20210;-82
2023/02/08 08:28:15;;;;;;;0.10;0.10;;;1.50;99.90;;;;;;5022771;28;20213;-81
2023/02/08 08:30:44;;;;;;;0.10;0.10;;;1.50;99.90;;;;;;5021326;28;20223;-83
2023/02/08 08:33:12;;;;;;;0.10;0.10;;;1.60;99.90;;;;;;5025192;28;20236;-81
2023/02/08 08:35:38;;;;;;;0.10;0.10;;;1.60;99.90;;;;;;5022213;28;20376;-82
2023/02/08 08:38:04;;;;;;;0.10;0.10;;;1.60;99.90;;;;;;5024060;28;20186;-82
2023/02/08 08:40:30;;;;;;;0.00;0.00;;;1.80;99.90;;;;;;5022159;28;20188;-82
2023/02/08 08:42:56;;;;;;;0.40;0.40;;;1.70;99.90;;;;;;5023856;28;20197;-82
2023/02/08 08:45:21;;;;;;;0.10;0.10;;;1.70;99.90;;;;;;5020490;28;20181;-82
2023/02/08 08:47:47;;;;;;;0.00;0.00;;;1.90;99.90;;;;;;5020944;28;20189;-83
2023/02/08 08:50:13;;;;;;;0.10;0.10;;;1.70;99.90;;;;;;5024149;28;20185;-80
2023/02/08 08:52:39;;;;;;;1.80;1.70;;;1.80;99.90;;;;;;5021696;28;20244;-82
2023/02/08 08:55:05;;;;;;;0.10;0.10;;;1.90;99.90;;;;;;5024463;28;20186;-82
2023/02/08 08:57:31;;;;;;;0.53;0.53;;;2.00;99.90;;;;;;5023643;28;20190;-82
2023/02/08 08:59:56;;;;;;;0.10;0.10;;;2.20;99.90;;;;;;5022800;28;20198;-82
2023/02/08 09:02:22;;;;;;;0.00;0.00;;;2.20;99.90;;;;;;5023942;28;20225;-82
2023/02/08 09:04:48;;;;;;;0.10;0.10;;;2.30;99.90;;;;;;5022079;28;20186;-82
2023/02/08 09:07:13;;;;;;;0.10;0.10;;;2.10;99.90;;;;;;5024173;28;20205;-81
2023/02/08 09:09:40;;;;;;;0.10;0.10;;;2.10;99.90;;;;;;5021004;28;20181;-82
2023/02/08 09:12:05;;;;;;;0.10;0.10;;;2.20;99.90;;;;;;5022460;28;20259;-82
2023/02/08 09:14:31;;;;;;;0.10;0.10;;;2.40;99.90;;;;;;5020908;28;20190;-81
2023/02/08 09:16:56;;;;;;;0.10;0.10;;;2.60;99.90;;;;;;5027968;28;20231;-82
2023/02/08 09:19:22;;;;;;;0.10;0.10;;;2.60;99.90;;;;;;5028207;28;20659;-81
2023/02/08 09:21:47;;;;;;;0.10;0.10;;;2.70;99.90;;;;;;5024417;28;20288;-82
2023/02/08 09:24:13;;;;;;;0.00;0.00;;;3.00;99.90;;;;;;5028236;28;20293;-82
2023/02/08 09:26:39;;;;;;;0.07;0.07;;;3.20;99.90;;;;;;5026485;28;21164;-81
2023/02/08 09:29:05;;;;;;;0.00;0.00;;;2.90;99.90;;;;;;5027321;28;20181;-83
2023/02/08 09:31:35;;;;;;;0.10;0.10;;;3.20;99.90;;;;;;5025064;28;20205;-82
2023/02/08 09:34:01;;;;;;;0.03;0.03;;;3.30;99.90;;;;;;5027988;28;20211;-82
2023/02/08 09:36:30;;;;;;;8.60;8.10;;;3.10;99.90;;;;;;5027244;28;20621;-82
2023/02/08 09:39:00;;;;;;;0.10;0.10;;;2.90;99.90;;;;;;5025743;28;20182;-81
2023/02/08 09:41:31;;;;;;;0.10;0.10;;;2.90;99.90;;;;;;5025953;28;20245;-82
2023/02/08 09:44:14;;;;;;;0.10;0.10;;;2.50;99.90;;;;;;5026403;28;20289;-83
2023/02/08 09:46:46;;;;;;;1.70;1.60;;;2.60;99.90;;;;;;5026719;28;20195;-83
2023/02/08 09:49:20;;;;;;;0.10;0.10;;;2.60;99.90;;;;;;5026980;28;20174;-82
2023/02/08 09:51:51;;;;;;;0.10;0.10;;;2.80;99.90;;;;;;5026165;28;20212;-82
2023/02/08 09:54:27;;;;;;;0.10;0.10;;;3.00;99.90;;;;;;5026435;28;20304;-81
2023/02/08 09:56:53;;;;;;;0.10;0.10;;;3.00;99.90;;;;;;5027585;28;20224;-83
2023/02/08 09:59:31;;;;;;;0.10;0.10;;;3.10;99.90;;;;;;5025604;28;20676;-83
2023/02/08 10:02:16;;;;;;;11.13;10.53;;;3.00;99.90;;;;;;5028432;28;20283;-81
2023/02/08 10:04:44;;;;;;;0.07;0.07;;;3.20;99.90;;;;;;5026625;28;20248;-82
2023/02/08 10:07:11;;;;;;;0.10;0.10;;;3.50;99.90;;;;;;5025718;28;20177;-82
2023/02/08 10:09:36;;;;;;;0.00;0.00;;;3.90;99.90;;;;;;5027475;28;20196;-82
2023/02/08 10:12:20;;;;;;;0.10;0.10;;;3.10;99.90;;;;;;5025730;28;20202;-82
2023/02/08 10:15:15;;;;;;;0.10;0.10;;;3.10;99.90;;;;;;5023992;28;20288;-82
2023/02/08 10:18:05;;;;;;;0.10;0.10;;;3.30;99.90;;;;;;5026114;28;20189;-81
2023/02/08 10:20:43;;;;;;;0.33;0.33;;;3.50;99.90;;;;;;5029491;28;20537;-80
2023/02/08 10:23:45;;;;;;;0.10;0.10;;;3.40;99.90;;;;;;5029320;28;20237;-82
2023/02/08 10:26:34;;;;;;;0.07;0.07;;;3.50;99.90;;;;;;5026216;28;20180;-82
2023/02/08 10:29:25;;;;;;;0.10;0.10;;;4.10;99.90;;;;;;5026708;28;20248;-82
2023/02/08 10:32:34;;;;;;;0.10;0.10;;;4.00;99.90;;;;;;5027291;28;20224;-82
2023/02/08 10:35:10;;;;;;;1.30;1.30;;;3.50;99.90;;;;;;5022035;28;20198;-81
2023/02/08 10:37:39;;;;;;;0.10;0.10;;;3.30;99.90;;;;;;5027843;28;20284;-81
2023/02/08 10:40:21;;;;;;;1.60;1.60;;;3.90;99.90;;;;;;5023885;28;20344;-81
2023/02/08 10:42:55;;;;;;;0.03;0.03;;;4.00;99.90;;;;;;5027550;28;20228;-82
2023/02/08 10:45:24;;;;;;;0.00;0.00;;;3.80;99.90;;;;;;5025393;28;20899;-82
2023/02/08 10:47:53;;;;;;;0.03;0.03;;;3.90;99.90;;;;;;5026727;28;20180;-81
2023/02/08 10:50:34;;;;;;;0.10;0.10;;;3.80;99.90;;;;;;5028261;28;20284;-81
2023/02/08 10:52:59;;;;;;;0.10;0.10;;;4.20;99.90;;;;;;5029506;28;20192;-83
2023/02/08 10:55:25;;;;;;;0.10;0.10;;;3.70;99.90;;;;;;5028924;28;20183;-81
2023/02/08 10:57:55;;;;;;;0.10;0.10;;;3.60;99.90;;;;;;5025915;28;20286;-81
2023/02/08 11:00:25;;;;;;;0.10;0.10;;;3.90;99.90;;;;;;5024547;28;20201;-82
2023/02/08 11:02:52;;;;;;;0.00;0.00;;;3.90;99.90;;;;;;5024987;28;20685;-81
2023/02/08 11:05:24;;;;;;;0.10;0.10;;;4.00;99.90;;;;;;5026937;28;20185;-82
2023/02/08 11:08:05;;;;;;;0.10;0.10;;;4.20;99.90;;;;;;5026037;28;20178;-81
2023/02/08 11:10:32;;;;;;;0.00;0.00;;;4.20;99.90;;;;;;5027627;28;20825;-81
2023/02/08 11:13:13;;;;;;;1.77;1.70;;;4.30;99.90;;;;;;5028322;28;20186;-80
2023/02/08 11:15:46;;;;;;;0.10;0.10;;;4.20;99.90;;;;;;5027349;28;20201;-81
2023/02/08 11:18:29;;;;;;;0.00;0.00;;;4.40;99.90;;;;;;5028270;28;20360;-82
2023/02/08 11:21:00;;;;;;;0.10;0.10;;;4.50;99.90;;;;;;5029886;28;20208;-81
2023/02/08 11:23:29;;;;;;;0.00;0.00;;;4.70;99.90;;;;;;5028650;28;20217;-82
2023/02/08 11:26:18;;;;;;;0.10;0.10;;;4.80;99.90;;;;;;5028399;28;20246;-81
2023/02/08 11:28:57;;;;;;;0.10;0.10;;;4.20;99.90;;;;;;5028616;28;20186;-81
2023/02/08 11:31:22;;;;;;;0.10;0.10;;;4.50;99.90;;;;;;5030632;28;20363;-81
2023/02/08 11:34:08;;;;;;;0.10;0.10;;;4.80;99.90;;;;;;5028306;28;20272;-80
2023/02/08 11:36:35;;;;;;;0.10;0.10;;;4.90;99.90;;;;;;5044688;28;20747;-81
2023/02/08 11:39:17;;;;;;;0.10;0.10;;;5.00;99.90;;;;;;5026231;28;20186;-80
2023/02/08 11:41:47;;;;;;;0.10;0.10;;;4.80;99.90;;;;;;5028258;28;20241;-82
2023/02/08 11:44:25;;;;;;;0.10;0.10;;;5.00;99.90;;;;;;5025282;28;20210;-82
2023/02/08 11:46:51;;;;;;;0.10;0.10;;;5.10;99.90;;;;;;5024947;28;20606;-82
2023/02/08 11:49:28;;;;;;;0.10;0.10;;;4.60;99.90;;;;;;5042884;28;20182;-82
2023/02/08 11:51:54;;;;;;;0.10;0.10;;;4.30;99.90;;;;;;5025182;28;20203;-83
2023/02/08 11:54:40;;;;;;;0.00;0.00;;;4.20;99.90;;;;;;5024212;28;20236;-81
2023/02/08 11:57:20;;;;;;;0.87;0.87;;;4.20;99.90;;;;;;5023414;28;20582;-81
2023/02/08 11:59:48;;;;;;;0.00;0.00;;;4.40;99.90;;;;;;5022518;28;20260;-82
2023/02/08 12:02:32;;;;;;;0.10;0.10;;;4.20;99.90;;;;;;5025325;28;20272;-82
2023/02/08 12:04:58;;;;;;;0.10;0.10;;;4.30;99.90;;;;;;5026398;28;21002;-83
2023/02/08 12:07:30;;;;;;;0.10;0.10;;;4.60;99.90;;;;;;5017993;28;20644;-80
2023/02/08 12:10:11;;;;;;;0.00;0.00;;;4.60;99.90;;;;;;5025820;28;20189;-82
2023/02/08 12:12:38;;;;;;;0.10;0.10;;;4.90;99.90;;;;;;5022852;28;20590;-82
2023/02/08 12:15:10;;;;;;;0.10;0.10;;;4.50;99.90;;;;;;5024640;28;20609;-81
2023/02/08 12:17:41;;;;;;;0.10;0.10;;;4.70;99.90;;;;;;5024268;28;20186;-81
2023/02/08 12:20:32;;;;;;;0.10;0.10;;;4.50;99.90;;;;;;5026309;28;20261;-81
2023/02/08 12:23:22;;;;;;;0.10;0.10;;;4.80;99.90;;;;;;5025256;28;20570;-81
2023/02/08 12:25:47;;;;;;;0.10;0.10;;;4.90;99.90;;;;;;5025220;28;20200;-81
2023/02/08 12:28:13;;;;;;;0.10;0.10;;;4.90;99.90;;;;;;5021873;28;20261;-82
2023/02/08 12:30:51;;;;;;;0.10;0.10;;;4.90;99.90;;;;;;5026090;28;20670;-82
2023/02/08 12:34:04;;;;;;;0.10;0.10;;;4.60;99.90;;;;;;5025511;28;20175;-82
2023/02/08 12:40:48;;;;;;;0.10;0.10;;;4.90;99.90;;;;;;4997884;28;20218;-82
2023/02/08 12:43:06;;;;;;;2.43;2.33;;;4.90;99.90;;;;;;5027027;28;20217;-81
2023/02/08 12:45:42;;;;;;;0.00;0.00;;;5.20;99.90;;;;;;5024987;28;20175;-81
2023/02/08 12:48:34;;;;;;;0.10;0.10;;;5.10;99.90;;;;;;5026330;28;20265;-82
2023/02/08 12:51:27;;;;;;;0.10;0.10;;;5.30;99.90;;;;;;5024549;28;20663;-81
2023/02/08 12:54:01;;;;;;;0.10;0.10;;;5.00;99.90;;;;;;5030328;28;20208;-82
2023/02/08 12:56:34;;;;;;;0.10;0.10;;;4.60;99.90;;;;;;5029528;28;20191;-81
2023/02/08 12:59:01;;;;;;;0.10;0.10;;;5.10;99.90;;;;;;5030639;28;20606;-82
2023/02/08 13:01:45;;;;;;;0.10;0.10;;;5.20;99.90;;;;;;5030872;28;20619;-82
2023/02/08 13:04:21;;;;;;;0.10;0.10;;;5.10;99.90;;;;;;5030705;28;20182;-81
2023/02/08 13:06:51;;;;;;;0.10;0.10;;;5.10;99.90;;;;;;5029864;28;20181;-81
2023/02/08 13:09:22;;;;;;;0.10;0.10;;;5.10;99.90;;;;;;5027671;28;20258;-81
2023/02/08 13:12:05;;;;;;;0.10;0.10;;;5.00;99.90;;;;;;5030400;28;20206;-81
2023/02/08 13:14:43;;;;;;;0.10;0.10;;;5.00;99.90;;;;;;5025364;28;20187;-81